createdAt,value
2022-11-21T00:02:01.106Z,100207.84
2022-11-21T00:06:59.232Z,100158.88
2022-11-21T00:11:56.352Z,100141.13
2022-11-21T00:16:57.304Z,100138.31
2022-11-21T00:21:54.697Z,100110.88
2022-11-21T00:26:52.377Z,100103.22
2022-11-21T00:31:49.458Z,100095.94
2022-11-21T00:36:47.247Z,100029.09
2022-11-21T00:41:44.581Z,100118.81
2022-11-21T00:46:42.428Z,100087.91
2022-11-21T00:51:39.732Z,100107.38
2022-11-21T00:56:36.560Z,100049.59
2022-11-21T01:01:33.753Z,100077.69
2022-11-21T01:06:31.680Z,100018.75
2022-11-21T01:11:28.727Z,100092.22
2022-11-21T01:16:28.516Z,100094.69
2022-11-21T01:21:28.103Z,100087.19
2022-11-21T01:26:27.660Z,100060.97
2022-11-21T01:31:26.983Z,100119.91
2022-11-21T01:36:26.206Z,100127.75
2022-11-21T01:41:26.239Z,100099.88
2022-11-21T01:46:24.831Z,100107.41
2022-11-21T01:51:28.798Z,100019.28
2022-11-21T01:56:29.114Z,100033.00
2022-11-21T02:01:27.686Z,99986.56
2022-11-21T02:06:25.981Z,99949.50
2022-11-21T02:11:30.846Z,99967.91
2022-11-21T02:16:29.080Z,99973.53
2022-11-21T02:21:39.658Z,99961.03
2022-11-21T02:26:38.417Z,99865.75
2022-11-21T02:31:35.944Z,99957.91
2022-11-21T02:36:41.855Z,99924.25
2022-11-21T02:41:47.066Z,99925.09
2022-11-21T02:46:49.275Z,99873.59
2022-11-21T02:51:46.343Z,99868.75
2022-11-21T02:56:44.430Z,99834.91
2022-11-21T03:01:41.353Z,99838.13
2022-11-21T03:06:38.750Z,99830.72
2022-11-21T03:11:36.013Z,99818.00
2022-11-21T03:16:33.909Z,99796.69
2022-11-21T03:21:38.630Z,99862.44
2022-11-21T03:26:38.451Z,99810.16
2022-11-21T03:31:36.368Z,99737.56
2022-11-21T03:36:36.366Z,99838.81
2022-11-21T03:41:34.592Z,99762.69
2022-11-21T03:46:33.523Z,99840.63
2022-11-21T03:51:31.688Z,99870.03
2022-11-21T03:56:29.376Z,99840.03
2022-11-21T04:01:26.834Z,99963.13
2022-11-21T04:06:24.250Z,99900.25
2022-11-21T04:11:24.083Z,99967.53
2022-11-21T04:16:21.347Z,99965.09
2022-11-21T04:21:18.396Z,99946.81
2022-11-21T04:26:15.490Z,99884.09
2022-11-21T04:31:13.673Z,99850.91
2022-11-21T04:36:10.680Z,99921.41
2022-11-21T04:41:07.920Z,99922.34
2022-11-21T04:46:05.052Z,99740.72
2022-11-21T04:51:02.981Z,99768.59
2022-11-21T04:56:03.801Z,99789.09
2022-11-21T05:01:06.648Z,99739.13
2022-11-21T05:06:05.058Z,99773.25
2022-11-21T05:11:19.972Z,99814.38
2022-11-21T05:16:17.143Z,99814.63
2022-11-21T05:21:15.075Z,99818.09
2022-11-21T05:26:12.173Z,99846.06
2022-11-21T05:31:09.278Z,99746.28
2022-11-21T05:36:06.678Z,99802.91
2022-11-21T05:41:04.262Z,99849.53
2022-11-21T05:46:01.265Z,99803.22
2022-11-21T05:50:58.208Z,99826.72
2022-11-21T05:55:55.237Z,99802.97
2022-11-21T06:00:59.940Z,99848.19
2022-11-21T06:06:02.483Z,99827.53
2022-11-21T06:10:59.536Z,99820.13
2022-11-21T06:16:01.214Z,99845.19
2022-11-21T06:21:01.971Z,99835.63
2022-11-21T06:26:00.606Z,99861.41
2022-11-21T06:31:02.020Z,99822.50
2022-11-21T06:36:03.056Z,99852.41
2022-11-21T06:41:04.453Z,99866.19
2022-11-21T06:46:02.756Z,99864.75
2022-11-21T06:51:05.672Z,99864.00
2022-11-21T06:56:03.659Z,99849.00
2022-11-21T07:01:04.246Z,99865.22
2022-11-21T07:06:01.681Z,99869.25
2022-11-21T07:16:25.453Z,99851.78
2022-11-21T07:21:22.654Z,99801.44
2022-11-21T07:26:20.506Z,99817.25
2022-11-21T07:31:17.583Z,99856.41
2022-11-21T07:36:14.575Z,99890.19
2022-11-21T07:41:11.647Z,99795.63
2022-11-21T07:46:16.033Z,99878.66
2022-11-21T07:51:13.103Z,99851.25
2022-11-21T07:56:10.472Z,99862.78
2022-11-21T08:01:07.855Z,99920.69
2022-11-21T08:06:05.484Z,99964.03
2022-11-21T08:11:05.352Z,99967.28
2022-11-21T08:16:03.653Z,99952.84
2022-11-21T08:21:01.670Z,99951.66
2022-11-21T08:25:59.521Z,99996.47
2022-11-21T08:30:56.534Z,99979.19
2022-11-21T08:35:56.509Z,99941.84
2022-11-21T08:41:07.885Z,99943.00
2022-11-21T08:46:05.826Z,99965.22
2022-11-21T08:51:02.892Z,99918.59
2022-11-21T08:56:03.934Z,100024.47
2022-11-21T09:01:01.335Z,100023.09
2022-11-21T09:05:59.393Z,99999.41
2022-11-21T09:10:56.598Z,99985.00
2022-11-21T09:16:13.409Z,100052.00
2022-11-21T09:21:15.717Z,100006.81
2022-11-21T09:26:12.748Z,100011.03
2022-11-21T09:31:09.819Z,100003.19
2022-11-21T09:36:06.803Z,100000.69
2022-11-21T09:41:36.506Z,100060.63
2022-11-21T09:46:40.889Z,100018.13
2022-11-21T09:51:39.825Z,100024.16
2022-11-21T09:56:41.342Z,100075.91
2022-11-21T10:01:38.637Z,100054.81
2022-11-21T10:06:42.317Z,100036.06
2022-11-21T10:12:07.315Z,100067.16
2022-11-21T10:17:16.488Z,100088.25
2022-11-21T10:22:36.232Z,100096.44
2022-11-21T10:27:40.782Z,100051.75
2022-11-21T10:32:41.319Z,100064.50
2022-11-21T10:37:40.359Z,100035.22
2022-11-21T10:42:46.092Z,100090.25
2022-11-21T10:47:44.805Z,100050.22
2022-11-21T10:52:55.629Z,100051.38
2022-11-21T10:57:54.774Z,100047.41
2022-11-21T11:03:06.952Z,100082.06
2022-11-21T11:08:07.288Z,100107.38
2022-11-21T11:13:45.977Z,100115.75
2022-11-21T11:18:52.234Z,100114.22
2022-11-21T11:23:57.368Z,100060.97
2022-11-21T11:29:09.637Z,100106.31
2022-11-21T11:34:12.525Z,100095.13
2022-11-21T11:39:20.657Z,100124.53
2022-11-21T11:44:47.091Z,100114.31
2022-11-21T11:50:07.019Z,100166.81
2022-11-21T11:55:07.986Z,100146.19
2022-11-21T12:00:22.500Z,100155.22
2022-11-21T12:05:25.138Z,100122.13
2022-11-21T12:10:27.530Z,100162.19
2022-11-21T12:15:49.339Z,100122.84
2022-11-21T12:20:56.054Z,100059.50
2022-11-21T12:26:06.018Z,100063.06
2022-11-21T12:31:14.958Z,100143.78
2022-11-21T12:36:22.646Z,100156.25
2022-11-21T12:41:46.032Z,100132.75
2022-11-21T12:46:57.544Z,100181.81
2022-11-21T12:52:27.398Z,100177.19
2022-11-21T12:57:35.588Z,100176.97
2022-11-21T13:02:48.580Z,100158.31
2022-11-21T13:07:46.669Z,100178.56
2022-11-21T13:12:48.307Z,100184.03
2022-11-21T13:17:53.929Z,100103.25
2022-11-21T13:22:52.931Z,100185.41
2022-11-21T13:27:49.940Z,100172.53
2022-11-21T13:32:53.246Z,100177.28
2022-11-21T13:38:01.637Z,100091.94
2022-11-21T13:43:33.397Z,100193.19
2022-11-21T13:48:55.042Z,100209.19
2022-11-21T13:54:26.207Z,100229.09
2022-11-21T13:59:39.838Z,100202.59
2022-11-21T14:04:54.586Z,100184.84
2022-11-21T14:09:52.774Z,100188.94
2022-11-21T14:14:53.589Z,100221.63
2022-11-21T14:19:54.809Z,100250.13
2022-11-21T14:24:55.630Z,100236.31
2022-11-21T14:29:52.510Z,100269.34
2022-11-21T14:34:49.410Z,100270.53
2022-11-21T14:39:52.717Z,100199.59
2022-11-21T14:45:07.176Z,100278.50
2022-11-21T14:50:07.504Z,100273.16
2022-11-21T14:55:28.992Z,100242.31
2022-11-21T15:06:06.449Z,100253.81
2022-11-21T15:11:08.452Z,100241.56
2022-11-21T15:16:07.313Z,100298.66
2022-11-21T15:21:04.975Z,100254.22
2022-11-21T15:26:02.850Z,100287.00
2022-11-21T15:31:18.277Z,100286.56
2022-11-21T15:36:15.492Z,100298.97
2022-11-21T15:41:31.498Z,100289.72
2022-11-21T15:46:31.336Z,100279.63
2022-11-21T15:51:59.579Z,100315.03
2022-11-21T15:56:49.921Z,100256.44
2022-11-21T16:01:47.868Z,100240.53
2022-11-21T16:06:45.286Z,100307.03
2022-11-21T16:11:43.307Z,100281.84
2022-11-21T16:16:43.699Z,100311.50
2022-11-21T16:21:42.712Z,100298.28
2022-11-21T16:26:40.447Z,100273.16
2022-11-21T16:31:44.756Z,100302.34
2022-11-21T16:36:44.993Z,100317.94
2022-11-21T16:41:43.881Z,100278.56
2022-11-21T16:46:43.445Z,100308.59
2022-11-21T16:51:41.372Z,100314.03
2022-11-21T16:56:40.221Z,100336.38
2022-11-21T17:01:37.637Z,100319.16
2022-11-21T17:06:35.431Z,100338.81
2022-11-21T17:11:34.176Z,100306.69
2022-11-21T17:16:32.987Z,100292.13
2022-11-21T17:21:31.007Z,100320.56
2022-11-21T17:26:29.731Z,100328.78
2022-11-21T17:31:27.590Z,100378.13
2022-11-21T17:36:28.268Z,100300.34
2022-11-21T17:41:28.748Z,100291.34
2022-11-21T17:46:26.331Z,100364.25
2022-11-21T17:51:29.614Z,100384.91
2022-11-21T17:56:29.550Z,100370.84
2022-11-21T18:01:27.877Z,100340.00
2022-11-21T18:06:29.405Z,100360.50
2022-11-21T18:11:33.215Z,100330.84
2022-11-21T18:16:35.524Z,100366.56
2022-11-21T18:21:35.763Z,100359.94
2022-11-21T18:26:35.462Z,100387.69
2022-11-21T18:31:33.623Z,100395.31
2022-11-21T18:36:32.295Z,100377.34
2022-11-21T18:41:33.627Z,100381.16
2022-11-21T18:46:34.856Z,100427.41
2022-11-21T18:51:32.764Z,100439.00
2022-11-21T18:56:31.134Z,100400.91
2022-11-21T19:01:29.349Z,100411.94
2022-11-21T19:06:27.882Z,100360.59
2022-11-21T19:11:26.867Z,100449.25
2022-11-21T19:16:27.607Z,100448.34
2022-11-21T19:21:25.485Z,100474.34
2022-11-21T19:26:23.466Z,100380.00
2022-11-21T19:31:21.601Z,100419.72
2022-11-21T19:36:24.129Z,100494.56
2022-11-21T19:41:25.580Z,100468.41
2022-11-21T19:46:26.162Z,100453.69
2022-11-21T19:51:28.894Z,100499.75
2022-11-21T19:56:26.974Z,100490.03
2022-11-21T20:01:25.701Z,100478.16
2022-11-21T20:06:25.412Z,100482.31
2022-11-21T20:11:24.113Z,100506.47
2022-11-21T20:16:23.740Z,100493.19
2022-11-21T20:21:21.661Z,100415.88
2022-11-21T20:26:25.965Z,100390.94
2022-11-21T20:31:37.685Z,100502.06
2022-11-21T20:36:39.734Z,100518.03
2022-11-21T20:41:37.815Z,100500.28
2022-11-21T20:46:42.683Z,100462.53
2022-11-21T20:57:01.347Z,100530.72
2022-11-21T21:01:58.394Z,100426.69
2022-11-21T21:06:55.637Z,100496.50
2022-11-21T21:11:53.633Z,100469.66
2022-11-21T21:16:51.471Z,100524.66
2022-11-21T21:21:48.629Z,100525.13
2022-11-21T21:26:47.447Z,100476.75
2022-11-21T21:31:50.568Z,100422.81
2022-11-21T21:36:49.661Z,100450.91
2022-11-21T21:41:47.721Z,100459.94
2022-11-21T21:46:45.580Z,100509.63
2022-11-21T21:51:42.535Z,100495.44
2022-11-21T21:56:40.667Z,100509.03
2022-11-21T22:01:37.780Z,100464.31
2022-11-21T22:06:35.658Z,100472.19
2022-11-21T22:11:36.546Z,100495.13
2022-11-21T22:16:34.140Z,100509.66
2022-11-21T22:21:33.136Z,100517.13
2022-11-21T22:26:30.405Z,100577.03
2022-11-21T22:31:30.101Z,100539.59
2022-11-21T22:36:28.934Z,100594.69
2022-11-21T22:41:27.340Z,100589.63
2022-11-21T22:46:25.211Z,100589.81
2022-11-21T22:51:23.926Z,100522.09
2022-11-21T22:56:23.906Z,100462.91
2022-11-21T23:01:22.804Z,100561.94
2022-11-21T23:06:22.950Z,100505.66
2022-11-21T23:11:22.412Z,100568.22
2022-11-21T23:16:19.569Z,100572.28
2022-11-21T23:21:16.440Z,100531.34
2022-11-21T23:26:13.976Z,100557.13
2022-11-21T23:31:11.548Z,100582.41
2022-11-21T23:36:08.413Z,100559.06
2022-11-21T23:41:05.358Z,100555.25
2022-11-21T23:46:02.232Z,100508.88
2022-11-21T23:50:59.839Z,100602.19
2022-11-21T23:55:56.807Z,100537.03
